Time;durP1;ratioP1;P1;durP2;ratioP2;P2;SDS_P1;SDS_P2;PMS_P1;PMS_P2;Temp;Humidity;BMP_temperature;BMP_pressure;BME280_temperature;BME280_humidity;BME280_pressure;Samples;Min_cycle;Max_cycle;Signal;HPM_P1;HPM_P2
2021/12/27 00:01:21;;;;;;;7.53;6.73;;;6.70;96.40;;;;;;968815;146;27301;-82
2021/12/27 00:03:50;;;;;;;8.70;7.07;;;6.70;96.40;;;;;;971615;146;27263;-82
2021/12/27 00:06:15;;;;;;;8.57;7.17;;;6.70;96.40;;;;;;954071;149;27701;-82
2021/12/27 00:08:42;;;;;;;9.63;7.40;;;6.70;96.40;;;;;;965632;146;27363;-82
2021/12/27 00:11:08;;;;;;;9.53;6.93;;;6.70;96.40;;;;;;964403;149;27279;-81
2021/12/27 00:13:34;;;;;;;9.10;7.37;;;6.70;96.40;;;;;;962392;148;27343;-82
2021/12/27 00:16:01;;;;;;;8.70;7.20;;;6.70;96.50;;;;;;970596;145;27421;-82
2021/12/27 00:18:28;;;;;;;9.10;6.97;;;6.60;96.50;;;;;;977853;145;27256;-81
2021/12/27 00:20:54;;;;;;;9.63;7.60;;;6.70;96.50;;;;;;965960;145;27278;-82
2021/12/27 00:23:21;;;;;;;10.23;7.43;;;6.60;96.50;;;;;;970970;145;27292;-82
2021/12/27 00:25:47;;;;;;;8.10;7.10;;;6.60;96.60;;;;;;961289;145;27251;-82
2021/12/27 00:28:14;;;;;;;8.77;7.43;;;6.60;96.60;;;;;;968806;145;27287;-82
2021/12/27 00:30:40;;;;;;;8.93;7.87;;;6.60;96.70;;;;;;962211;149;27859;-82
2021/12/27 00:33:08;;;;;;;9.10;7.73;;;6.60;96.80;;;;;;969394;145;27228;-82
2021/12/27 00:35:36;;;;;;;8.27;7.23;;;6.60;96.70;;;;;;975311;145;27288;-82
2021/12/27 00:38:00;;;;;;;10.93;8.40;;;6.60;96.80;;;;;;965371;145;27381;-82
2021/12/27 00:40:27;;;;;;;8.73;7.30;;;6.60;96.90;;;;;;962953;147;27279;-82
2021/12/27 00:42:53;;;;;;;9.23;7.03;;;6.60;96.90;;;;;;963021;147;27239;-82
2021/12/27 00:45:20;;;;;;;8.90;7.57;;;6.60;97.00;;;;;;972079;145;27260;-82
2021/12/27 00:47:47;;;;;;;8.67;7.77;;;6.60;97.00;;;;;;959966;146;27314;-82
2021/12/27 00:50:13;;;;;;;10.07;7.80;;;6.60;97.10;;;;;;972847;145;27337;-82
2021/12/27 00:52:40;;;;;;;8.10;7.30;;;6.60;97.20;;;;;;949038;145;27423;-82
2021/12/27 00:55:09;;;;;;;9.67;8.07;;;6.60;97.30;;;;;;968080;148;27315;-82
2021/12/27 00:57:39;;;;;;;8.73;7.10;;;6.60;97.40;;;;;;962667;145;27264;-82
2021/12/27 01:00:05;;;;;;;8.97;7.63;;;6.50;97.50;;;;;;978472;145;27401;-82
2021/12/27 01:02:32;;;;;;;9.10;7.27;;;6.50;97.70;;;;;;949655;145;27300;-82
2021/12/27 01:04:58;;;;;;;8.60;7.30;;;6.50;97.80;;;;;;946870;149;27295;-82
2021/12/27 01:07:25;;;;;;;9.03;7.33;;;6.50;98.00;;;;;;966960;145;27372;-82
2021/12/27 01:10:05;;;;;;;8.57;6.90;;;6.50;98.10;;;;;;964972;145;27303;-81
2021/12/27 01:12:35;;;;;;;7.03;6.33;;;6.50;98.20;;;;;;957660;146;27233;-82
2021/12/27 01:17:32;;;;;;;7.77;6.53;;;6.60;98.40;;;;;;929818;153;27460;-82
2021/12/27 01:19:58;;;;;;;7.87;6.67;;;6.60;98.40;;;;;;984483;145;27265;-82
2021/12/27 01:22:25;;;;;;;7.80;6.73;;;6.60;98.40;;;;;;966717;146;27301;-82
2021/12/27 01:24:52;;;;;;;7.07;6.30;;;6.60;98.50;;;;;;958995;146;27960;-82
2021/12/27 01:27:18;;;;;;;7.83;6.50;;;6.60;98.70;;;;;;962389;148;27297;-82
2021/12/27 01:29:45;;;;;;;8.57;7.27;;;6.60;98.80;;;;;;952901;149;27875;-82
2021/12/27 01:32:14;;;;;;;7.83;6.57;;;6.60;98.90;;;;;;963493;149;27315;-81
2021/12/27 01:34:41;;;;;;;7.83;6.97;;;6.60;98.90;;;;;;963265;146;27294;-81
2021/12/27 01:37:07;;;;;;;7.30;6.60;;;6.60;99.00;;;;;;966808;146;27279;-81
2021/12/27 01:39:34;;;;;;;8.63;6.97;;;6.60;98.80;;;;;;964494;146;27282;-81
2021/12/27 01:42:01;;;;;;;8.63;6.90;;;6.60;98.80;;;;;;956565;146;27398;-81
2021/12/27 01:44:27;;;;;;;7.17;6.33;;;6.60;98.80;;;;;;964202;146;27300;-81
2021/12/27 01:46:54;;;;;;;7.50;6.67;;;6.60;98.80;;;;;;951584;150;27307;-81
2021/12/27 01:49:20;;;;;;;7.83;7.10;;;6.70;98.80;;;;;;961930;147;27403;-81
2021/12/27 01:51:47;;;;;;;8.63;6.87;;;6.70;98.90;;;;;;963484;146;27295;-81
2021/12/27 01:54:14;;;;;;;6.80;6.13;;;6.70;98.90;;;;;;962851;149;27263;-81
2021/12/27 01:56:40;;;;;;;7.93;6.90;;;6.70;99.00;;;;;;963409;146;27356;-81
2021/12/27 01:59:07;;;;;;;8.27;6.97;;;6.70;98.90;;;;;;961644;148;27799;-81
2021/12/27 02:01:33;;;;;;;8.33;7.10;;;6.70;99.00;;;;;;966724;148;27309;-81
2021/12/27 02:04:00;;;;;;;8.63;6.87;;;6.70;99.00;;;;;;967523;148;27244;-81
2021/12/27 02:06:29;;;;;;;8.30;7.17;;;6.70;98.90;;;;;;966786;148;27414;-81
2021/12/27 02:08:56;;;;;;;6.77;6.07;;;6.70;98.80;;;;;;949212;148;27280;-81
2021/12/27 02:11:23;;;;;;;7.13;6.00;;;6.70;98.80;;;;;;950993;146;27318;-81
2021/12/27 02:13:49;;;;;;;7.93;6.40;;;6.70;98.80;;;;;;970556;145;27445;-80
2021/12/27 02:16:16;;;;;;;8.10;6.50;;;6.70;98.90;;;;;;968681;145;27343;-81
2021/12/27 02:18:44;;;;;;;7.67;6.80;;;6.70;98.90;;;;;;966587;146;27283;-81
2021/12/27 02:21:09;;;;;;;8.73;7.07;;;6.70;98.80;;;;;;959042;148;27288;-81
2021/12/27 02:23:37;;;;;;;7.30;6.37;;;6.80;98.80;;;;;;957098;148;27310;-81
2021/12/27 02:26:02;;;;;;;7.03;6.20;;;6.80;98.80;;;;;;954362;149;27274;-80
2021/12/27 02:28:29;;;;;;;6.97;6.20;;;6.80;98.70;;;;;;961888;149;27252;-81
2021/12/27 02:30:55;;;;;;;6.90;5.97;;;6.80;98.70;;;;;;961454;148;27277;-80
2021/12/27 02:33:22;;;;;;;7.47;6.43;;;6.80;98.70;;;;;;947239;148;27362;-81
2021/12/27 02:35:48;;;;;;;9.30;6.20;;;6.80;98.70;;;;;;968691;146;27797;-81
2021/12/27 02:38:15;;;;;;;7.83;5.73;;;6.80;98.70;;;;;;965140;149;27243;-81
2021/12/27 02:40:42;;;;;;;6.27;5.67;;;6.80;98.70;;;;;;954582;148;27348;-81
2021/12/27 02:43:08;;;;;;;6.00;5.40;;;6.80;98.60;;;;;;958853;149;27290;-81
2021/12/27 02:45:35;;;;;;;5.63;5.13;;;6.80;98.70;;;;;;967503;146;27331;-81
2021/12/27 02:48:01;;;;;;;5.93;5.00;;;6.80;98.70;;;;;;966716;143;27377;-81
2021/12/27 02:50:31;;;;;;;5.83;5.00;;;6.80;98.70;;;;;;964763;148;27267;-81
2021/12/27 02:52:57;;;;;;;5.97;5.17;;;6.90;98.70;;;;;;963890;148;27335;-81
2021/12/27 02:55:24;;;;;;;5.97;4.93;;;6.90;98.70;;;;;;959653;149;27602;-81
2021/12/27 02:57:51;;;;;;;5.67;5.10;;;6.90;98.70;;;;;;953159;149;27295;-81
2021/12/27 03:00:17;;;;;;;5.63;4.80;;;6.90;98.70;;;;;;964184;146;27360;-81
2021/12/27 03:02:44;;;;;;;4.63;4.23;;;6.90;98.70;;;;;;964844;146;27235;-80
2021/12/27 03:05:11;;;;;;;5.30;4.80;;;6.90;98.70;;;;;;965091;149;27274;-80
2021/12/27 03:07:37;;;;;;;4.83;4.37;;;6.90;98.70;;;;;;965294;148;27396;-81
2021/12/27 03:10:04;;;;;;;4.83;4.43;;;6.90;98.60;;;;;;965288;149;27371;-81
2021/12/27 03:12:30;;;;;;;4.50;3.97;;;6.90;98.60;;;;;;964390;146;27286;-81
2021/12/27 03:14:57;;;;;;;4.50;4.10;;;6.90;98.60;;;;;;956951;148;27300;-81
2021/12/27 03:17:23;;;;;;;4.60;4.17;;;7.00;98.70;;;;;;962910;148;27388;-81
2021/12/27 03:19:50;;;;;;;4.30;3.90;;;7.00;98.70;;;;;;950019;149;27795;-81
2021/12/27 03:22:16;;;;;;;4.33;3.97;;;7.00;98.80;;;;;;963319;147;27316;-81
2021/12/27 03:24:43;;;;;;;4.83;4.20;;;7.00;98.80;;;;;;959552;146;27980;-81
2021/12/27 03:27:10;;;;;;;4.57;4.17;;;7.00;98.80;;;;;;965265;149;27344;-81
2021/12/27 03:29:36;;;;;;;4.97;4.10;;;7.00;98.70;;;;;;963160;149;27267;-81
2021/12/27 03:32:04;;;;;;;5.00;4.53;;;7.10;98.70;;;;;;941686;149;27415;-81
2021/12/27 03:34:32;;;;;;;5.00;4.50;;;7.10;98.70;;;;;;945069;149;27401;-81
2021/12/27 03:36:56;;;;;;;5.43;4.83;;;7.10;98.60;;;;;;948608;151;27416;-81
2021/12/27 03:39:23;;;;;;;5.60;5.00;;;7.10;98.60;;;;;;948636;151;27323;-81
2021/12/27 03:41:49;;;;;;;5.33;4.83;;;7.10;98.50;;;;;;963996;148;27799;-81
2021/12/27 03:44:16;;;;;;;5.03;4.53;;;7.10;98.90;;;;;;961019;149;27320;-81
2021/12/27 03:46:42;;;;;;;4.77;4.27;;;7.10;98.50;;;;;;964991;148;27377;-81
2021/12/27 03:49:09;;;;;;;4.80;4.40;;;7.10;98.60;;;;;;961623;149;27317;-83
2021/12/27 03:51:35;;;;;;;4.53;4.13;;;7.10;98.50;;;;;;942480;149;27325;-83
2021/12/27 03:54:02;;;;;;;4.70;4.30;;;7.10;98.40;;;;;;964168;149;27809;-83
2021/12/27 03:56:29;;;;;;;5.23;4.67;;;7.10;98.50;;;;;;964494;149;27321;-84
2021/12/27 03:59:18;;;;;;;5.20;4.43;;;7.10;98.50;;;;;;958368;147;27292;-83
2021/12/27 04:01:26;;;;;;;4.50;4.10;;;7.10;98.50;;;;;;961614;149;27326;-83
2021/12/27 04:03:51;;;;;;;4.90;4.50;;;7.20;98.60;;;;;;960432;149;27304;-83
2021/12/27 04:06:18;;;;;;;4.50;4.10;;;7.20;98.60;;;;;;962790;149;27387;-83
2021/12/27 04:08:44;;;;;;;5.17;4.27;;;7.20;98.60;;;;;;959640;146;27287;-83
2021/12/27 04:11:11;;;;;;;5.40;4.90;;;7.20;98.70;;;;;;966349;146;27373;-82
2021/12/27 04:13:37;;;;;;;4.90;4.43;;;7.20;98.70;;;;;;952690;146;27249;-83
2021/12/27 04:16:04;;;;;;;4.93;4.53;;;7.20;98.70;;;;;;966158;145;27308;-83
2021/12/27 04:18:31;;;;;;;4.80;4.40;;;7.20;98.30;;;;;;964865;146;27237;-83
2021/12/27 04:20:57;;;;;;;4.27;3.93;;;7.20;98.60;;;;;;966556;146;27395;-82
2021/12/27 04:23:24;;;;;;;4.03;3.73;;;7.20;98.60;;;;;;961930;146;27298;-83
2021/12/27 04:25:50;;;;;;;4.13;3.73;;;7.20;98.50;;;;;;967195;145;27311;-83
2021/12/27 04:28:19;;;;;;;4.33;3.93;;;7.30;98.60;;;;;;973338;146;27308;-83
2021/12/27 04:30:44;;;;;;;4.10;3.73;;;7.30;98.60;;;;;;965906;148;27398;-83
2021/12/27 04:33:10;;;;;;;4.27;3.70;;;7.30;98.60;;;;;;963522;146;27383;-83
2021/12/27 04:35:37;;;;;;;5.23;3.67;;;7.30;98.60;;;;;;961276;145;27308;-84
2021/12/27 04:38:03;;;;;;;3.73;3.43;;;7.30;98.70;;;;;;962795;148;27283;-83
2021/12/27 04:40:30;;;;;;;3.73;3.40;;;7.30;98.70;;;;;;964034;146;27396;-83
2021/12/27 04:42:56;;;;;;;4.47;3.47;;;7.30;98.70;;;;;;960904;146;27319;-84
2021/12/27 04:45:23;;;;;;;3.63;3.33;;;7.30;98.70;;;;;;974144;145;27359;-84
2021/12/27 04:47:50;;;;;;;4.10;3.80;;;7.40;98.70;;;;;;977669;146;27361;-83
2021/12/27 04:50:16;;;;;;;4.03;3.60;;;7.40;98.70;;;;;;953450;149;27389;-83
2021/12/27 04:52:43;;;;;;;3.47;3.17;;;7.40;98.70;;;;;;974295;144;27307;-83
2021/12/27 04:55:09;;;;;;;4.20;3.90;;;7.40;98.80;;;;;;957621;145;27280;-84
2021/12/27 04:57:36;;;;;;;3.60;3.30;;;7.40;98.80;;;;;;959452;149;27794;-83
2021/12/27 05:00:03;;;;;;;4.03;3.63;;;7.40;98.70;;;;;;963349;146;27298;-83
2021/12/27 05:02:29;;;;;;;4.00;3.60;;;7.40;98.70;;;;;;966536;146;27292;-84
2021/12/27 05:04:56;;;;;;;5.37;3.40;;;7.50;98.70;;;;;;962103;146;27321;-83
2021/12/27 05:07:22;;;;;;;5.07;3.70;;;7.50;98.70;;;;;;970488;146;27284;-83
2021/12/27 05:09:49;;;;;;;4.20;3.80;;;7.50;98.70;;;;;;959274;147;27421;-84
2021/12/27 05:12:15;;;;;;;3.70;3.40;;;7.50;98.70;;;;;;960201;146;27351;-83
2021/12/27 05:14:42;;;;;;;4.23;3.80;;;7.50;98.60;;;;;;968222;146;27325;-83
2021/12/27 05:17:09;;;;;;;6.03;3.83;;;7.50;98.60;;;;;;973939;145;27391;-83
2021/12/27 05:19:35;;;;;;;3.93;3.63;;;7.50;98.60;;;;;;969736;147;27405;-83
2021/12/27 05:22:02;;;;;;;3.70;3.40;;;7.60;98.60;;;;;;974295;145;27279;-83
2021/12/27 05:24:29;;;;;;;4.07;3.73;;;7.60;98.50;;;;;;967317;145;27235;-83
2021/12/27 05:26:55;;;;;;;5.27;4.40;;;7.60;98.50;;;;;;971542;145;27435;-83
2021/12/27 05:29:22;;;;;;;4.33;4.00;;;7.60;98.40;;;;;;973010;145;27337;-83
2021/12/27 05:31:48;;;;;;;4.33;3.93;;;7.60;98.30;;;;;;960183;145;27828;-83
2021/12/27 05:34:17;;;;;;;4.13;3.73;;;7.60;98.30;;;;;;951566;149;27275;-84
2021/12/27 05:36:44;;;;;;;3.73;3.40;;;7.60;98.30;;;;;;951490;148;27318;-84
2021/12/27 05:39:11;;;;;;;3.53;3.23;;;7.60;98.20;;;;;;969818;147;27258;-82
2021/12/27 05:41:37;;;;;;;3.77;3.47;;;7.60;98.20;;;;;;962214;147;27371;-83
2021/12/27 05:44:04;;;;;;;3.93;3.53;;;7.50;98.20;;;;;;970707;148;27309;-83
2021/12/27 05:46:30;;;;;;;4.80;4.30;;;7.50;98.30;;;;;;970045;145;27766;-83
2021/12/27 05:48:57;;;;;;;4.10;3.70;;;7.50;98.40;;;;;;971583;145;27238;-83
2021/12/27 05:51:24;;;;;;;4.27;3.87;;;7.50;98.60;;;;;;969481;148;27282;-83
2021/12/27 05:53:50;;;;;;;4.50;3.83;;;7.50;98.70;;;;;;956350;148;27289;-83
2021/12/27 05:56:17;;;;;;;4.00;3.60;;;7.50;98.80;;;;;;968586;147;27268;-83
2021/12/27 05:58:46;;;;;;;4.20;3.87;;;7.60;99.00;;;;;;970132;148;27442;-83
2021/12/27 06:01:13;;;;;;;3.83;3.53;;;7.60;99.00;;;;;;966846;148;27321;-83
2021/12/27 06:03:39;;;;;;;4.10;3.70;;;7.60;98.90;;;;;;972213;147;27372;-83
2021/12/27 06:06:07;;;;;;;3.60;3.30;;;7.60;98.80;;;;;;970776;148;27312;-84
2021/12/27 06:08:33;;;;;;;4.43;4.03;;;7.70;98.90;;;;;;972230;145;27317;-83
2021/12/27 06:10:59;;;;;;;4.50;4.10;;;7.70;98.90;;;;;;963246;145;27406;-82
2021/12/27 06:13:26;;;;;;;3.97;3.57;;;7.70;98.90;;;;;;966193;148;27350;-83
2021/12/27 06:15:52;;;;;;;4.23;3.83;;;7.70;98.80;;;;;;971692;145;27282;-82
2021/12/27 06:18:20;;;;;;;4.70;4.30;;;7.70;98.90;;;;;;967435;146;27326;-82
2021/12/27 06:20:46;;;;;;;4.83;4.10;;;7.70;98.80;;;;;;964162;146;27326;-83
2021/12/27 06:23:12;;;;;;;4.40;4.00;;;7.80;98.70;;;;;;981026;145;27351;-83
2021/12/27 06:25:39;;;;;;;4.40;4.00;;;7.80;98.70;;;;;;966007;146;27372;-83
2021/12/27 06:28:05;;;;;;;4.50;4.10;;;7.80;98.60;;;;;;975117;145;27276;-83
2021/12/27 06:30:32;;;;;;;3.83;3.53;;;7.80;98.60;;;;;;967508;148;27311;-83
2021/12/27 06:32:59;;;;;;;3.93;3.63;;;7.80;98.60;;;;;;968225;148;27289;-84
2021/12/27 06:35:25;;;;;;;5.47;4.20;;;7.80;98.50;;;;;;975133;146;27253;-83
2021/12/27 06:37:52;;;;;;;4.30;3.93;;;7.80;98.50;;;;;;967584;145;27741;-83
2021/12/27 06:40:18;;;;;;;4.80;4.23;;;7.80;98.60;;;;;;970062;145;27373;-83
2021/12/27 06:42:45;;;;;;;4.00;3.60;;;7.80;98.60;;;;;;978854;145;27384;-83
2021/12/27 06:45:11;;;;;;;4.50;4.10;;;7.80;98.70;;;;;;971182;146;27291;-83
2021/12/27 06:47:38;;;;;;;4.40;4.00;;;7.70;98.60;;;;;;963802;146;27390;-83
2021/12/27 06:50:07;;;;;;;4.60;4.00;;;7.80;98.70;;;;;;960900;148;27365;-83
2021/12/27 06:52:34;;;;;;;4.33;3.70;;;7.80;98.70;;;;;;961023;149;27415;-83
2021/12/27 06:55:01;;;;;;;4.27;3.97;;;7.80;98.80;;;;;;970777;146;27395;-82
2021/12/27 06:57:27;;;;;;;4.27;3.87;;;7.80;98.80;;;;;;969996;146;27260;-83
2021/12/27 06:59:54;;;;;;;4.40;3.97;;;7.80;98.70;;;;;;964310;146;27379;-83
2021/12/27 07:02:20;;;;;;;3.83;3.53;;;7.80;98.70;;;;;;968126;148;27295;-83
2021/12/27 07:04:47;;;;;;;4.93;4.40;;;7.80;98.70;;;;;;965423;146;27448;-83
2021/12/27 07:07:13;;;;;;;4.43;4.10;;;7.80;98.70;;;;;;960662;148;27319;-83
2021/12/27 07:09:40;;;;;;;4.20;3.80;;;7.90;98.70;;;;;;966007;146;27330;-83
2021/12/27 07:12:07;;;;;;;4.37;3.97;;;7.90;98.60;;;;;;966921;146;27290;-83
2021/12/27 07:14:33;;;;;;;5.93;4.53;;;7.90;98.60;;;;;;966930;148;27800;-83
2021/12/27 07:17:00;;;;;;;4.73;4.30;;;7.90;98.60;;;;;;946702;148;27404;-83
2021/12/27 07:19:30;;;;;;;4.70;4.30;;;7.90;98.60;;;;;;966730;145;27457;-83
2021/12/27 07:21:56;;;;;;;5.07;4.57;;;7.80;98.60;;;;;;957737;145;28012;-83
2021/12/27 07:24:23;;;;;;;5.43;4.60;;;7.90;98.60;;;;;;976593;145;27239;-83
2021/12/27 07:26:49;;;;;;;5.23;4.60;;;7.80;98.60;;;;;;968204;145;27289;-83
2021/12/27 07:29:16;;;;;;;4.97;4.47;;;7.80;98.60;;;;;;967580;146;27335;-84
2021/12/27 07:31:42;;;;;;;5.20;4.63;;;7.80;98.60;;;;;;967995;148;27294;-83
2021/12/27 07:34:09;;;;;;;5.70;5.00;;;7.80;98.70;;;;;;967579;148;27459;-84
2021/12/27 07:36:36;;;;;;;5.40;4.90;;;7.80;98.70;;;;;;976840;145;27353;-83
2021/12/27 07:39:02;;;;;;;4.97;4.50;;;7.80;98.70;;;;;;974355;145;27808;-84
2021/12/27 07:41:29;;;;;;;5.47;4.97;;;7.90;98.90;;;;;;963370;146;27366;-83
2021/12/27 07:43:56;;;;;;;5.90;5.30;;;7.90;98.90;;;;;;965495;148;27258;-84
2021/12/27 07:46:22;;;;;;;5.47;4.80;;;7.90;99.30;;;;;;967401;145;27314;-83
2021/12/27 07:48:51;;;;;;;6.27;4.87;;;7.90;98.90;;;;;;970885;145;27415;-82
2021/12/27 07:51:18;;;;;;;5.53;5.03;;;7.90;98.90;;;;;;967713;145;27385;-83
2021/12/27 07:53:44;;;;;;;4.70;4.27;;;7.90;98.80;;;;;;957452;145;27338;-83
2021/12/27 07:56:11;;;;;;;5.70;5.20;;;7.90;98.80;;;;;;964360;148;27360;-83
2021/12/27 07:58:37;;;;;;;5.87;5.27;;;8.00;98.80;;;;;;951605;148;27302;-84
2021/12/27 08:01:04;;;;;;;6.30;5.63;;;8.00;98.80;;;;;;956013;148;27258;-82
2021/12/27 08:03:31;;;;;;;6.27;5.40;;;8.00;98.80;;;;;;958804;148;27301;-83
2021/12/27 08:05:57;;;;;;;6.97;5.80;;;8.00;98.80;;;;;;966330;148;27657;-83
2021/12/27 08:08:24;;;;;;;7.83;6.07;;;8.00;98.90;;;;;;952784;148;27215;-84
2021/12/27 08:10:50;;;;;;;6.37;5.33;;;8.00;98.80;;;;;;964442;145;27290;-83
2021/12/27 08:13:20;;;;;;;7.03;6.33;;;8.00;98.80;;;;;;978006;145;27372;-83
2021/12/27 08:15:49;;;;;;;6.63;5.93;;;8.10;98.70;;;;;;980199;145;27312;-83
2021/12/27 08:18:15;;;;;;;7.33;6.53;;;8.10;98.60;;;;;;960174;148;27334;-83
2021/12/27 08:20:42;;;;;;;6.33;5.73;;;8.10;98.60;;;;;;959433;149;27476;-84
2021/12/27 08:23:08;;;;;;;6.77;6.10;;;8.10;98.70;;;;;;953896;149;27300;-83
2021/12/27 08:25:35;;;;;;;8.23;5.77;;;8.10;98.70;;;;;;959492;149;27310;-83
2021/12/27 08:28:01;;;;;;;6.80;6.10;;;8.10;98.70;;;;;;963540;146;27814;-83
2021/12/27 08:30:28;;;;;;;6.70;6.07;;;8.10;98.70;;;;;;965248;148;27352;-83
2021/12/27 08:32:57;;;;;;;6.23;5.63;;;8.10;98.80;;;;;;964906;149;27304;-84
2021/12/27 08:35:21;;;;;;;7.23;6.50;;;8.10;98.80;;;;;;961617;146;27409;-83
2021/12/27 08:37:48;;;;;;;7.87;6.50;;;8.10;98.80;;;;;;981030;146;27293;-84
2021/12/27 08:40:14;;;;;;;7.93;6.73;;;8.10;98.80;;;;;;964436;148;27341;-83
2021/12/27 08:42:41;;;;;;;8.17;6.87;;;8.20;98.50;;;;;;964981;149;27328;-84
2021/12/27 08:45:08;;;;;;;7.63;6.93;;;8.20;98.90;;;;;;960703;146;27264;-83
2021/12/27 08:47:37;;;;;;;8.60;6.57;;;8.20;99.00;;;;;;967889;146;27275;-84
2021/12/27 08:50:06;;;;;;;7.67;6.73;;;8.20;99.10;;;;;;961088;146;27307;-84
2021/12/27 08:52:36;;;;;;;7.33;6.63;;;8.30;99.10;;;;;;960984;146;27282;-83
2021/12/27 08:55:03;;;;;;;9.43;7.03;;;8.30;99.20;;;;;;960710;146;27323;-84
2021/12/27 08:57:29;;;;;;;6.93;6.23;;;8.30;99.20;;;;;;945253;149;27411;-83
2021/12/27 08:59:56;;;;;;;7.47;6.40;;;8.30;99.20;;;;;;945560;148;27387;-83
2021/12/27 09:02:22;;;;;;;7.60;6.43;;;8.30;99.20;;;;;;962653;147;27309;-83
2021/12/27 09:04:50;;;;;;;7.90;7.00;;;8.40;99.20;;;;;;964667;146;27335;-83
2021/12/27 09:07:15;;;;;;;7.27;6.57;;;8.40;99.10;;;;;;974247;146;27296;-84
2021/12/27 09:09:44;;;;;;;9.70;6.60;;;8.40;99.20;;;;;;971748;146;28433;-83
2021/12/27 09:12:09;;;;;;;7.33;6.63;;;8.40;99.30;;;;;;967221;146;27433;-83
2021/12/27 09:14:35;;;;;;;8.33;6.40;;;8.50;99.40;;;;;;951943;149;27279;-83
2021/12/27 09:17:02;;;;;;;7.60;6.77;;;8.50;99.50;;;;;;961517;146;27259;-84
2021/12/27 09:19:28;;;;;;;6.90;6.20;;;8.60;99.40;;;;;;953722;148;27691;-84
2021/12/27 09:21:56;;;;;;;8.50;6.73;;;8.60;99.40;;;;;;967496;147;27270;-83
2021/12/27 09:24:22;;;;;;;8.43;6.90;;;8.60;99.40;;;;;;959897;148;27338;-83
2021/12/27 09:26:48;;;;;;;8.50;6.50;;;8.70;99.60;;;;;;971246;148;27291;-83
2021/12/27 09:29:15;;;;;;;6.47;5.87;;;8.70;99.50;;;;;;970807;145;27331;-83
2021/12/27 09:31:41;;;;;;;7.47;6.07;;;8.80;99.70;;;;;;970144;145;27268;-84
2021/12/27 09:34:08;;;;;;;6.77;5.53;;;8.90;99.80;;;;;;976350;145;27248;-83
2021/12/27 09:36:35;;;;;;;6.07;5.57;;;8.90;99.80;;;;;;962084;148;27246;-84
2021/12/27 09:39:01;;;;;;;6.97;6.00;;;9.00;99.70;;;;;;971633;145;27294;-83
2021/12/27 09:41:28;;;;;;;6.83;6.00;;;9.00;99.60;;;;;;971210;146;27318;-83
2021/12/27 09:43:54;;;;;;;5.83;5.33;;;9.10;99.50;;;;;;970835;148;27690;-84
2021/12/27 09:46:21;;;;;;;6.37;5.73;;;9.10;99.40;;;;;;969441;145;27350;-84
2021/12/27 09:48:47;;;;;;;8.20;5.80;;;9.20;99.40;;;;;;969317;147;27425;-84
2021/12/27 09:51:16;;;;;;;6.60;5.70;;;9.20;99.40;;;;;;970585;146;27297;-84
2021/12/27 09:53:41;;;;;;;6.10;5.50;;;9.30;99.70;;;;;;967421;148;27287;-83
2021/12/27 09:56:07;;;;;;;5.87;5.30;;;9.30;99.90;;;;;;965938;147;27330;-83
2021/12/27 09:58:34;;;;;;;6.83;6.13;;;9.40;99.90;;;;;;971595;147;27293;-83
2021/12/27 10:01:03;;;;;;;6.83;6.17;;;9.50;99.80;;;;;;971315;148;27362;-84
2021/12/27 10:03:27;;;;;;;7.10;6.00;;;9.50;99.50;;;;;;971094;145;27273;-83
2021/12/27 10:05:54;;;;;;;6.77;6.17;;;9.60;99.30;;;;;;970502;147;27261;-83
2021/12/27 10:08:20;;;;;;;6.93;6.23;;;9.60;99.00;;;;;;970959;148;27391;-83
2021/12/27 10:10:47;;;;;;;7.10;6.13;;;9.70;98.70;;;;;;970672;145;27321;-84
2021/12/27 10:13:13;;;;;;;5.63;5.13;;;9.70;98.50;;;;;;976637;145;27360;-83
2021/12/27 10:15:40;;;;;;;5.97;5.43;;;9.70;98.40;;;;;;966806;148;27247;-83
2021/12/27 10:18:12;;;;;;;5.13;4.67;;;9.70;98.50;;;;;;975588;145;27314;-83
2021/12/27 10:20:39;;;;;;;5.10;4.60;;;9.70;98.60;;;;;;964845;145;27367;-84
2021/12/27 10:23:05;;;;;;;5.17;4.30;;;9.70;98.80;;;;;;976611;143;27261;-84
2021/12/27 10:25:32;;;;;;;5.17;4.07;;;9.70;98.80;;;;;;972057;146;27315;-83
2021/12/27 10:27:59;;;;;;;4.50;4.07;;;9.80;99.00;;;;;;966343;146;27389;-83
2021/12/27 10:30:25;;;;;;;4.40;4.00;;;9.80;99.10;;;;;;964205;148;27312;-83
2021/12/27 10:33:12;;;;;;;5.47;4.60;;;9.80;99.20;;;;;;965105;148;27288;-83
2021/12/27 10:35:39;;;;;;;4.40;4.00;;;9.90;99.20;;;;;;967210;146;27335;-84
2021/12/27 10:38:24;;;;;;;4.60;3.80;;;10.00;99.30;;;;;;967686;148;27393;-83
2021/12/27 10:40:57;;;;;;;3.97;3.57;;;10.00;99.30;;;;;;960182;146;27420;-84
2021/12/27 10:43:38;;;;;;;3.60;3.30;;;10.10;99.40;;;;;;954962;145;27328;-84
2021/12/27 10:46:04;;;;;;;4.00;3.60;;;10.10;99.40;;;;;;963038;148;27351;-84
2021/12/27 10:48:46;;;;;;;4.40;4.00;;;10.20;99.30;;;;;;972878;145;27334;-83
2021/12/27 10:51:13;;;;;;;3.73;3.43;;;10.20;99.20;;;;;;966367;146;27305;-84
2021/12/27 10:53:48;;;;;;;3.87;3.57;;;10.30;99.20;;;;;;960337;148;27397;-83
2021/12/27 10:56:15;;;;;;;4.30;3.80;;;10.30;99.50;;;;;;960498;149;27256;-84
2021/12/27 10:58:56;;;;;;;4.50;3.30;;;10.40;99.30;;;;;;973143;146;27279;-84
2021/12/27 11:01:23;;;;;;;3.67;3.40;;;10.50;99.40;;;;;;968250;146;27367;-84
2021/12/27 11:03:49;;;;;;;3.93;3.63;;;10.50;99.20;;;;;;964358;146;27301;-84
2021/12/27 11:06:25;;;;;;;3.67;3.37;;;10.60;99.10;;;;;;968331;146;27335;-83
2021/12/27 11:08:54;;;;;;;3.80;3.50;;;10.60;99.10;;;;;;958920;149;27760;-85
2021/12/27 11:11:21;;;;;;;3.83;3.53;;;10.70;99.20;;;;;;956342;146;27295;-85
2021/12/27 11:13:47;;;;;;;4.60;4.20;;;10.80;99.40;;;;;;970066;146;27256;-84
2021/12/27 11:16:14;;;;;;;3.80;3.30;;;10.80;99.40;;;;;;961365;148;27369;-84
2021/12/27 11:18:40;;;;;;;3.87;3.57;;;10.90;99.20;;;;;;964432;148;27419;-84
2021/12/27 11:21:10;;;;;;;3.47;3.17;;;11.00;99.20;;;;;;959206;145;27333;-84
2021/12/27 11:23:36;;;;;;;3.93;3.60;;;11.10;98.90;;;;;;960345;149;27285;-84
2021/12/27 11:26:03;;;;;;;3.97;3.67;;;11.10;98.60;;;;;;965401;148;27295;-84
2021/12/27 11:28:38;;;;;;;3.97;3.67;;;11.20;98.40;;;;;;948356;149;27267;-84
2021/12/27 11:31:08;;;;;;;4.43;3.63;;;11.20;98.30;;;;;;952456;148;27294;-85
2021/12/27 11:33:52;;;;;;;4.10;3.80;;;11.20;98.20;;;;;;961647;146;27390;-85
2021/12/27 11:36:19;;;;;;;3.83;3.53;;;11.20;97.90;;;;;;960823;148;27351;-84
2021/12/27 11:38:45;;;;;;;4.10;3.80;;;11.20;97.80;;;;;;965164;148;27403;-84
2021/12/27 11:41:24;;;;;;;3.47;3.17;;;11.20;97.60;;;;;;969634;147;27365;-84
2021/12/27 11:43:56;;;;;;;4.40;3.60;;;11.20;97.50;;;;;;963383;146;27399;-85
2021/12/27 11:46:23;;;;;;;4.07;3.77;;;11.20;97.20;;;;;;962857;146;27248;-85
2021/12/27 11:48:49;;;;;;;4.23;3.83;;;11.20;96.90;;;;;;964135;147;27228;-83
2021/12/27 11:51:16;;;;;;;4.33;4.03;;;11.20;96.90;;;;;;963997;149;27384;-84
2021/12/27 11:53:47;;;;;;;4.83;4.43;;;11.20;96.90;;;;;;960879;149;27352;-84
2021/12/27 11:56:12;;;;;;;5.37;4.77;;;11.10;96.80;;;;;;950610;147;27341;-84
2021/12/27 11:58:38;;;;;;;5.10;4.10;;;11.10;96.70;;;;;;968430;147;27257;-83
2021/12/27 12:01:23;;;;;;;4.57;4.17;;;11.10;96.60;;;;;;966535;147;27306;-84
2021/12/27 12:03:49;;;;;;;4.43;4.03;;;11.10;96.70;;;;;;963078;148;27393;-85
2021/12/27 12:06:41;;;;;;;5.23;4.30;;;11.00;96.70;;;;;;953830;148;27380;-84
2021/12/27 12:09:10;;;;;;;4.17;3.80;;;11.00;96.60;;;;;;953375;147;27298;-84
2021/12/27 12:11:36;;;;;;;5.33;4.87;;;11.00;96.60;;;;;;964460;147;27268;-83
2021/12/27 12:14:24;;;;;;;5.17;4.77;;;10.90;96.50;;;;;;962650;149;27271;-83
2021/12/27 12:16:51;;;;;;;6.30;5.70;;;10.90;96.50;;;;;;964990;147;27862;-84
2021/12/27 12:19:17;;;;;;;5.53;5.03;;;10.90;96.40;;;;;;963267;146;27364;-84
2021/12/27 12:21:44;;;;;;;5.90;5.00;;;10.80;96.40;;;;;;950184;148;27346;-83
2021/12/27 12:24:13;;;;;;;5.50;4.87;;;10.80;96.40;;;;;;961499;148;27311;-84
2021/12/27 12:26:55;;;;;;;5.37;4.87;;;10.80;96.50;;;;;;969396;147;27283;-84
2021/12/27 12:29:22;;;;;;;5.20;4.70;;;10.70;96.60;;;;;;971097;147;27409;-84
2021/12/27 12:31:50;;;;;;;5.17;4.77;;;10.70;96.80;;;;;;970373;148;27277;-83
2021/12/27 12:34:21;;;;;;;4.60;4.03;;;10.70;96.90;;;;;;976197;145;27411;-84
2021/12/27 12:36:53;;;;;;;5.23;4.67;;;10.70;96.90;;;;;;960854;145;27362;-84
2021/12/27 12:39:19;;;;;;;4.70;4.23;;;10.70;97.00;;;;;;967958;145;27295;-84
2021/12/27 12:41:46;;;;;;;4.93;4.50;;;10.70;97.10;;;;;;973795;145;27258;-83
2021/12/27 12:44:13;;;;;;;4.97;4.57;;;10.80;97.20;;;;;;970018;145;27340;-83
2021/12/27 12:46:41;;;;;;;4.87;4.40;;;10.80;97.30;;;;;;968502;148;27307;-83
2021/12/27 12:49:09;;;;;;;5.73;5.10;;;10.80;97.30;;;;;;965331;148;27361;-83
2021/12/27 12:51:35;;;;;;;5.17;4.77;;;10.90;97.30;;;;;;970219;145;27310;-83
2021/12/27 12:54:02;;;;;;;5.07;4.60;;;10.90;97.20;;;;;;950623;150;27339;-83
2021/12/27 12:56:31;;;;;;;5.27;4.87;;;10.90;97.00;;;;;;938316;150;27441;-83
2021/12/27 12:58:58;;;;;;;5.17;4.67;;;11.00;96.70;;;;;;969806;148;27282;-83